Time;durP1;ratioP1;P1;durP2;ratioP2;P2;SDS_P1;SDS_P2;PMS_P1;PMS_P2;Temp;Humidity;BMP_temperature;BMP_pressure;BME280_temperature;BME280_humidity;BME280_pressure;Samples;Min_cycle;Max_cycle;Signal;HPM_P1;HPM_P2
2024/03/08 00:02:00;;;;;;;;;;;;;;;;;;5049764;28;20471;-65
2024/03/08 00:04:26;;;;;;;;;;;;;;;;;;5030396;28;19932;-65
2024/03/08 00:06:52;;;;;;;;;;;;;;;;;;5045909;28;20274;-64
2024/03/08 00:09:18;;;;;;;;;;;;;;;;;;5050751;28;20308;-64
2024/03/08 00:11:44;;;;;;;;;;;;;;;;;;5063459;28;19928;-64
2024/03/08 00:14:10;;;;;;;;;;;;;;;;;;5045404;28;19932;-65
2024/03/08 00:16:37;;;;;;;;;;;;;;;;;;5049606;28;20381;-65
2024/03/08 00:19:03;;;;;;;;;;;;;;;;;;5051739;28;19928;-65
2024/03/08 00:21:29;;;;;;;;;;;;;;;;;;5053277;28;21683;-65
2024/03/08 00:23:55;;;;;;;;;;;;;;;;;;5048966;28;19974;-65
2024/03/08 00:26:21;;;;;;;;;;;;;;;;;;5051196;28;19925;-65
2024/03/08 00:28:48;;;;;;;;;;;;;;;;;;5051343;28;19928;-65
2024/03/08 00:31:15;;;;;;;;;;;;;;;;;;5047948;28;19927;-65
2024/03/08 00:33:41;;;;;;;;;;;;;;;;;;5052223;28;19921;-65
2024/03/08 00:36:07;;;;;;;;;;;;;;;;;;5045452;28;22258;-65
2024/03/08 00:38:34;;;;;;;;;;;;;;;;;;5048662;28;19932;-65
2024/03/08 00:41:00;;;;;;;;;;;;;;;;;;5049653;28;19921;-63
2024/03/08 00:43:25;;;;;;;;;;;;;;;;;;5050313;28;20377;-64
2024/03/08 00:45:51;;;;;;;;;;;;;;;;;;5049837;28;19936;-64
2024/03/08 00:48:17;;;;;;;;;;;;;;;;;;5045892;28;19932;-64
2024/03/08 00:50:45;;;;;;;;;;;;;;;;;;5047535;28;19928;-64
2024/03/08 00:53:11;;;;;;;;;;;;;;;;;;5049021;28;19920;-64
2024/03/08 00:55:37;;;;;;;;;;;;;;;;;;5050746;28;19927;-64
2024/03/08 00:58:03;;;;;;;;;;;;;;;;;;5050432;28;19932;-64
2024/03/08 01:00:29;;;;;;;;;;;;;;;;;;5049361;28;19925;-64
2024/03/08 01:02:55;;;;;;;;;;;;;;;;;;5049260;28;19921;-64
2024/03/08 01:05:22;;;;;;;;;;;;;;;;;;5049964;28;21655;-64
2024/03/08 01:07:49;;;;;;;;;;;;;;;;;;5048745;28;19920;-64
2024/03/08 01:10:15;;;;;;;;;;;;;;;;;;5049156;28;20695;-64
2024/03/08 01:12:42;;;;;;;;;;;;;;;;;;5048383;28;19964;-64
2024/03/08 01:15:08;;;;;;;;;;;;;;;;;;5049079;28;19927;-64
2024/03/08 01:17:34;;;;;;;;;;;;;;;;;;5048385;28;19925;-64
2024/03/08 01:20:00;;;;;;;;;;;;;;;;;;5049379;28;20363;-64
2024/03/08 01:22:28;;;;;;;;;;;;;;;;;;5047244;28;19925;-64
2024/03/08 01:24:53;;;;;;;;;;;;;;;;;;5048945;28;20350;-64
2024/03/08 01:27:19;;;;;;;;;;;;;;;;;;5051065;28;19932;-64
2024/03/08 01:29:45;;;;;;;;;;;;;;;;;;5050334;28;19928;-64
2024/03/08 01:32:11;;;;;;;;;;;;;;;;;;5049214;28;19970;-64
2024/03/08 01:34:37;;;;;;;;;;;;;;;;;;5049399;28;19928;-64
2024/03/08 01:37:03;;;;;;;;;;;;;;;;;;5050404;28;19951;-64
2024/03/08 01:39:29;;;;;;;;;;;;;;;;;;5040598;28;19935;-64
2024/03/08 01:41:55;;;;;;;;;;;;;;;;;;5047128;28;19928;-64
2024/03/08 01:44:21;;;;;;;;;;;;;;;;;;5049668;28;19927;-64
2024/03/08 01:46:47;;;;;;;;;;;;;;;;;;5048926;28;19951;-64
2024/03/08 01:49:13;;;;;;;;;;;;;;;;;;5050050;28;19933;-64
2024/03/08 01:51:40;;;;;;;;;;;;;;;;;;5044341;28;19947;-64
2024/03/08 01:54:06;;;;;;;;;;;;;;;;;;5061751;28;20011;-64
2024/03/08 01:56:31;;;;;;;;;;;;;;;;;;5044429;28;20008;-65
2024/03/08 01:58:57;;;;;;;;;;;;;;;;;;5049096;28;21828;-65
2024/03/08 02:01:23;;;;;;;;;;;;;;;;;;5048900;28;20015;-65
2024/03/08 02:03:49;;;;;;;;;;;;;;;;;;5052322;28;19924;-65
2024/03/08 02:06:16;;;;;;;;;;;;;;;;;;5052713;28;20011;-65
2024/03/08 02:08:42;;;;;;;;;;;;;;;;;;5055159;28;19921;-65
2024/03/08 02:11:08;;;;;;;;;;;;;;;;;;5048652;28;19927;-64
2024/03/08 02:13:34;;;;;;;;;;;;;;;;;;5052846;28;19928;-64
2024/03/08 02:16:00;;;;;;;;;;;;;;;;;;5052895;28;20323;-64
2024/03/08 02:18:26;;;;;;;;;;;;;;;;;;5052474;28;19920;-64
2024/03/08 02:20:52;;;;;;;;;;;;;;;;;;5052571;28;19920;-64
2024/03/08 02:23:17;;;;;;;;;;;;;;;;;;5053442;28;22013;-65
2024/03/08 02:25:43;;;;;;;;;;;;;;;;;;5063579;22;19939;-62
2024/03/08 02:28:09;;;;;;;;;;;;;;;;;;5070539;28;19932;-61
2024/03/08 02:30:35;;;;;;;;;;;;;;;;;;5070169;28;19943;-62
2024/03/08 02:33:01;;;;;;;;;;;;;;;;;;5073860;28;19927;-62
2024/03/08 02:35:27;;;;;;;;;;;;;;;;;;5072083;28;19920;-62
2024/03/08 02:37:53;;;;;;;;;;;;;;;;;;5070844;28;20552;-62
2024/03/08 02:40:19;;;;;;;;;;;;;;;;;;5068989;28;20273;-62
2024/03/08 02:42:45;;;;;;;;;;;;;;;;;;5069481;28;19925;-62
2024/03/08 02:45:11;;;;;;;;;;;;;;;;;;5068801;28;19924;-62
2024/03/08 02:47:37;;;;;;;;;;;;;;;;;;5071454;28;19920;-62
2024/03/08 02:50:03;;;;;;;;;;;;;;;;;;5072677;28;20392;-62
2024/03/08 02:52:29;;;;;;;;;;;;;;;;;;5073138;28;19924;-62
2024/03/08 02:54:55;;;;;;;;;;;;;;;;;;5072446;28;19974;-62
2024/03/08 02:57:22;;;;;;;;;;;;;;;;;;5073375;28;20442;-62
2024/03/08 02:59:48;;;;;;;;;;;;;;;;;;5066269;28;21348;-62
2024/03/08 03:02:13;;;;;;;;;;;;;;;;;;5070934;28;19920;-62
2024/03/08 03:04:39;;;;;;;;;;;;;;;;;;5064185;28;19925;-62
2024/03/08 03:07:05;;;;;;;;;;;;;;;;;;5073388;28;19936;-63
2024/03/08 03:09:32;;;;;;;;;;;;;;;;;;5067020;28;19970;-63
2024/03/08 03:11:58;;;;;;;;;;;;;;;;;;5070814;28;19925;-62
2024/03/08 03:14:26;;;;;;;;;;;;;;;;;;5067319;28;19935;-62
2024/03/08 03:16:52;;;;;;;;;;;;;;;;;;5067002;28;20007;-63
2024/03/08 03:19:18;;;;;;;;;;;;;;;;;;5069156;28;20007;-62
2024/03/08 03:21:44;;;;;;;;;;;;;;;;;;5068600;28;20007;-62
2024/03/08 03:24:10;;;;;;;;;;;;;;;;;;5058959;28;19931;-62
2024/03/08 03:26:38;;;;;;;;;;;;;;;;;;5066812;28;19935;-62
2024/03/08 03:29:05;;;;;;;;;;;;;;;;;;5066992;28;19927;-62
2024/03/08 03:31:31;;;;;;;;;;;;;;;;;;5065355;28;20488;-62
2024/03/08 03:34:03;;;;;;;;;;;;;;;;;;5068453;28;19925;-63
2024/03/08 03:36:29;;;;;;;;;;;;;;;;;;5067997;28;19920;-62
2024/03/08 03:39:05;;;;;;;;;;;;;;;;;;5065716;28;19935;-62
2024/03/08 03:41:31;;;;;;;;;;;;;;;;;;5068304;28;19924;-62
2024/03/08 03:43:57;;;;;;;;;;;;;;;;;;5068667;28;19932;-62
2024/03/08 03:46:23;;;;;;;;;;;;;;;;;;5060999;28;19921;-62
2024/03/08 03:48:49;;;;;;;;;;;;;;;;;;5071111;28;19921;-62
2024/03/08 03:51:15;;;;;;;;;;;;;;;;;;5070935;28;20358;-62
2024/03/08 03:53:41;;;;;;;;;;;;;;;;;;5069164;28;19966;-62
2024/03/08 03:56:07;;;;;;;;;;;;;;;;;;5067917;28;19960;-62
2024/03/08 03:58:33;;;;;;;;;;;;;;;;;;5070582;28;20057;-62
2024/03/08 04:00:59;;;;;;;;;;;;;;;;;;5064623;28;19920;-62
2024/03/08 04:03:25;;;;;;;;;;;;;;;;;;5070666;28;20014;-62
2024/03/08 04:05:51;;;;;;;;;;;;;;;;;;5067071;28;19950;-62
2024/03/08 04:08:17;;;;;;;;;;;;;;;;;;5070445;28;19921;-62
2024/03/08 04:10:43;;;;;;;;;;;;;;;;;;5069956;28;19966;-63
2024/03/08 04:13:09;;;;;;;;;;;;;;;;;;5061023;28;20428;-62
2024/03/08 04:15:35;;;;;;;;;;;;;;;;;;5067337;28;19959;-61
2024/03/08 04:18:02;;;;;;;;;;;;;;;;;;5071053;28;20471;-60
2024/03/08 04:20:27;;;;;;;;;;;;;;;;;;5070977;28;20321;-62
2024/03/08 04:22:53;;;;;;;;;;;;;;;;;;5058804;28;19924;-61
2024/03/08 04:25:20;;;;;;;;;;;;;;;;;;5064299;28;19928;-62
2024/03/08 04:27:46;;;;;;;;;;;;;;;;;;5066742;28;19920;-62
2024/03/08 04:30:12;;;;;;;;;;;;;;;;;;5071036;28;19959;-61
2024/03/08 04:32:38;;;;;;;;;;;;;;;;;;5062511;28;19951;-61
2024/03/08 04:35:04;;;;;;;;;;;;;;;;;;5058332;28;20329;-61
2024/03/08 04:37:30;;;;;;;;;;;;;;;;;;5067745;28;20577;-62
2024/03/08 04:39:56;;;;;;;;;;;;;;;;;;5070898;28;19925;-61
2024/03/08 04:42:22;;;;;;;;;;;;;;;;;;5067131;28;19980;-61
2024/03/08 04:44:48;;;;;;;;;;;;;;;;;;5069260;28;20377;-61
2024/03/08 04:47:14;;;;;;;;;;;;;;;;;;5067019;28;20073;-61
2024/03/08 04:49:40;;;;;;;;;;;;;;;;;;5063631;28;19928;-62
2024/03/08 04:52:06;;;;;;;;;;;;;;;;;;5061174;28;19936;-61
2024/03/08 04:54:32;;;;;;;;;;;;;;;;;;5062996;28;19925;-61
2024/03/08 04:57:01;;;;;;;;;;;;;;;;;;5062492;28;19927;-62
2024/03/08 04:59:27;;;;;;;;;;;;;;;;;;5066024;28;20054;-61
2024/03/08 05:01:53;;;;;;;;;;;;;;;;;;5067211;28;20003;-62
2024/03/08 05:04:19;;;;;;;;;;;;;;;;;;5060507;28;19935;-62
2024/03/08 05:06:45;;;;;;;;;;;;;;;;;;5068544;28;19925;-62
2024/03/08 05:09:18;;;;;;;;;;;;;;;;;;5063818;28;20003;-62
2024/03/08 05:11:44;;;;;;;;;;;;;;;;;;5059462;28;19921;-62
2024/03/08 05:14:10;;;;;;;;;;;;;;;;;;5069488;28;20011;-62
2024/03/08 05:16:36;;;;;;;;;;;;;;;;;;5068683;28;19927;-62
2024/03/08 05:19:02;;;;;;;;;;;;;;;;;;5066563;28;19931;-62
2024/03/08 05:21:28;;;;;;;;;;;;;;;;;;5067606;28;20362;-62
2024/03/08 05:23:54;;;;;;;;;;;;;;;;;;5071751;28;19932;-62
2024/03/08 05:26:22;;;;;;;;;;;;;;;;;;5069136;28;20609;-62
2024/03/08 05:28:48;;;;;;;;;;;;;;;;;;5072095;28;19970;-62
2024/03/08 05:31:14;;;;;;;;;;;;;;;;;;5062548;28;19924;-62
2024/03/08 05:33:42;;;;;;;;;;;;;;;;;;5068130;28;19924;-62
2024/03/08 05:36:08;;;;;;;;;;;;;;;;;;5069711;28;20437;-62
2024/03/08 05:38:34;;;;;;;;;;;;;;;;;;5070161;28;19920;-62
2024/03/08 05:41:01;;;;;;;;;;;;;;;;;;5070909;28;19936;-62
2024/03/08 05:43:26;;;;;;;;;;;;;;;;;;5069994;28;19970;-62
2024/03/08 05:45:52;;;;;;;;;;;;;;;;;;5067059;28;19920;-62
2024/03/08 05:48:18;;;;;;;;;;;;;;;;;;5066313;28;20258;-62
2024/03/08 05:50:44;;;;;;;;;;;;;;;;;;5066381;28;19927;-62
2024/03/08 05:53:10;;;;;;;;;;;;;;;;;;5066158;28;19931;-62
2024/03/08 05:55:36;;;;;;;;;;;;;;;;;;5063697;28;19920;-62
2024/03/08 05:58:02;;;;;;;;;;;;;;;;;;5066463;28;19920;-62
2024/03/08 06:00:28;;;;;;;;;;;;;;;;;;5066924;28;20366;-62
2024/03/08 06:02:55;;;;;;;;;;;;;;;;;;5068742;28;19921;-62
2024/03/08 06:05:23;;;;;;;;;;;;;;;;;;5068960;28;20011;-62
2024/03/08 06:07:49;;;;;;;;;;;;;;;;;;5056536;28;20018;-62
2024/03/08 06:10:17;;;;;;;;;;;;;;;;;;5066480;28;20079;-62
2024/03/08 06:12:43;;;;;;;;;;;;;;;;;;5071594;28;19920;-62
2024/03/08 06:15:09;;;;;;;;;;;;;;;;;;5064456;28;19921;-62
2024/03/08 06:17:35;;;;;;;;;;;;;;;;;;5062540;28;19920;-62
2024/03/08 06:20:01;;;;;;;;;;;;;;;;;;5065035;28;19934;-62
2024/03/08 06:22:27;;;;;;;;;;;;;;;;;;5068022;28;20011;-62
2024/03/08 06:24:54;;;;;;;;;;;;;;;;;;5064562;28;20375;-62
2024/03/08 06:27:19;;;;;;;;;;;;;;;;;;5069161;28;19955;-62
2024/03/08 06:29:45;;;;;;;;;;;;;;;;;;5070602;28;19927;-61
2024/03/08 06:32:11;;;;;;;;;;;;;;;;;;5061625;28;20302;-62
2024/03/08 06:34:37;;;;;;;;;;;;;;;;;;5066873;28;19921;-61
2024/03/08 06:37:03;;;;;;;;;;;;;;;;;;5063309;28;20366;-61
2024/03/08 06:39:31;;;;;;;;;;;;;;;;;;5064806;28;19925;-62
2024/03/08 06:41:57;;;;;;;;;;;;;;;;;;5065682;28;19924;-62
2024/03/08 06:44:23;;;;;;;;;;;;;;;;;;5065514;28;19931;-62
2024/03/08 06:46:49;;;;;;;;;;;;;;;;;;5064597;28;19921;-62
2024/03/08 06:49:15;;;;;;;;;;;;;;;;;;5070671;28;19921;-62
2024/03/08 06:51:41;;;;;;;;;;;;;;;;;;5071032;28;19921;-62
2024/03/08 06:54:08;;;;;;;;;;;;;;;;;;5064729;28;19921;-63
2024/03/08 06:56:34;;;;;;;;;;;;;;;;;;5064690;28;19920;-62
2024/03/08 06:59:02;;;;;;;;;;;;;;;;;;5070821;28;20046;-62
2024/03/08 07:01:31;;;;;;;;;;;;;;;;;;5072985;28;19921;-61
2024/03/08 07:03:57;;;;;;;;;;;;;;;;;;5072433;28;20011;-61
2024/03/08 07:06:23;;;;;;;;;;;;;;;;;;5071720;28;19956;-62
2024/03/08 07:08:49;;;;;;;;;;;;;;;;;;5069798;28;19921;-62
2024/03/08 07:11:18;;;;;;;;;;;;;;;;;;5071114;28;19920;-62
2024/03/08 07:13:44;;;;;;;;;;;;;;;;;;5072880;28;19920;-62
2024/03/08 07:16:11;;;;;;;;;;;;;;;;;;5069184;28;19939;-62
2024/03/08 07:18:39;;;;;;;;;;;;;;;;;;5074135;28;20290;-62
2024/03/08 07:21:05;;;;;;;;;;;;;;;;;;5067063;28;19961;-62
2024/03/08 07:23:53;;;;;;;;;;;;;;;;;;5069565;28;19989;-62
2024/03/08 07:26:19;;;;;;;;;;;;;;;;;;5066464;28;19925;-62
2024/03/08 07:28:45;;;;;;;;;;;;;;;;;;5077829;28;20008;-62
2024/03/08 07:33:42;;;;;;;;;;;;;;;;;;5067606;28;19956;-62
2024/03/08 07:36:10;;;;;;;;;;;;;;;;;;5073435;28;20405;-62
2024/03/08 07:38:36;;;;;;;;;;;;;;;;;;5073967;28;19924;-62
2024/03/08 07:41:02;;;;;;;;;;;;;;;;;;5069912;28;19926;-62
2024/03/08 07:43:28;;;;;;;;;;;;;;;;;;5049794;28;20310;-62
2024/03/08 07:45:55;;;;;;;;;;;;;;;;;;5067743;28;19947;-62
2024/03/08 07:48:21;;;;;;;;;;;;;;;;;;5073972;28;19924;-62
2024/03/08 07:50:46;;;;;;;;;;;;;;;;;;5074225;28;19920;-62
2024/03/08 07:53:12;;;;;;;;;;;;;;;;;;5065976;28;20298;-62
2024/03/08 07:55:42;;;;;;;;;;;;;;;;;;5067327;28;20012;-62
2024/03/08 07:58:10;;;;;;;;;;;;;;;;;;5066216;28;19920;-62
2024/03/08 08:00:36;;;;;;;;;;;;;;;;;;5066237;28;19920;-62
2024/03/08 08:03:02;;;;;;;;;;;;;;;;;;5067902;28;19969;-62
2024/03/08 08:05:28;;;;;;;;;;;;;;;;;;5062991;28;19924;-61
2024/03/08 08:07:54;;;;;;;;;;;;;;;;;;5074204;28;20413;-62
2024/03/08 08:10:24;;;;;;;;;;;;;;;;;;5067423;28;19985;-61
2024/03/08 08:12:51;;;;;;;;;;;;;;;;;;5065791;28;19981;-62
2024/03/08 08:15:17;;;;;;;;;;;;;;;;;;5063545;28;19936;-62
2024/03/08 08:17:43;;;;;;;;;;;;;;;;;;5063366;28;19935;-63
2024/03/08 08:20:10;;;;;;;;;;;;;;;;;;5063578;28;20362;-61
2024/03/08 08:22:36;;;;;;;;;;;;;;;;;;5074851;28;19924;-61
2024/03/08 08:25:02;;;;;;;;;;;;;;;;;;5069958;28;20278;-63
2024/03/08 08:27:28;;;;;;;;;;;;;;;;;;5078164;28;19930;-60
2024/03/08 08:29:53;;;;;;;;;;;;;;;;;;5045533;28;19991;-61
2024/03/08 08:32:20;;;;;;;;;;;;;;;;;;5065256;28;20001;-62
2024/03/08 08:34:46;;;;;;;;;;;;;;;;;;5071854;28;19921;-61
2024/03/08 08:37:12;;;;;;;;;;;;;;;;;;5068780;28;20015;-61
2024/03/08 08:39:38;;;;;;;;;;;;;;;;;;5066750;28;19924;-61
2024/03/08 08:42:04;;;;;;;;;;;;;;;;;;5073921;28;19923;-62
2024/03/08 08:44:31;;;;;;;;;;;;;;;;;;5061224;28;19927;-62
2024/03/08 08:46:57;;;;;;;;;;;;;;;;;;5064864;28;20255;-61
2024/03/08 08:49:23;;;;;;;;;;;;;;;;;;5074367;28;19944;-61
2024/03/08 08:51:50;;;;;;;;;;;;;;;;;;5072197;28;19932;-62
2024/03/08 08:54:16;;;;;;;;;;;;;;;;;;5066459;28;19921;-62
2024/03/08 08:56:44;;;;;;;;;;;;;;;;;;5078619;28;19921;-62
2024/03/08 08:59:09;;;;;;;;;;;;;;;;;;5071846;28;19931;-63
2024/03/08 09:01:35;;;;;;;;;;;;;;;;;;5075511;28;19920;-62
2024/03/08 09:04:01;;;;;;;;;;;;;;;;;;5077296;28;19960;-62
2024/03/08 09:06:27;;;;;;;;;;;;;;;;;;5058033;28;20387;-62
2024/03/08 09:08:53;;;;;;;;;;;;;;;;;;5072810;28;19920;-62
2024/03/08 09:11:20;;;;;;;;;;;;;;;;;;5069140;28;20445;-62
2024/03/08 09:13:46;;;;;;;;;;;;;;;;;;5072010;28;20345;-63
2024/03/08 09:16:12;;;;;;;;;;;;;;;;;;5068650;28;20783;-62
2024/03/08 09:18:38;;;;;;;;;;;;;;;;;;5064605;28;20009;-62
2024/03/08 09:21:05;;;;;;;;;;;;;;;;;;5067022;28;19920;-62
2024/03/08 09:23:31;;;;;;;;;;;;;;;;;;5065191;28;19924;-62
2024/03/08 09:25:59;;;;;;;;;;;;;;;;;;5066785;28;19948;-62
2024/03/08 09:28:27;;;;;;;;;;;;;;;;;;5063282;28;19959;-62
2024/03/08 09:30:53;;;;;;;;;;;;;;;;;;5044237;28;19924;-61
2024/03/08 09:33:19;;;;;;;;;;;;;;;;;;5067158;28;19932;-62
2024/03/08 09:35:46;;;;;;;;;;;;;;;;;;5067587;28;19929;-61
2024/03/08 09:38:13;;;;;;;;;;;;;;;;;;5066024;28;20370;-62
2024/03/08 09:40:38;;;;;;;;;;;;;;;;;;5068031;28;19927;-62
2024/03/08 09:43:04;;;;;;;;;;;;;;;;;;5065733;28;20354;-61
2024/03/08 09:45:30;;;;;;;;;;;;;;;;;;5065290;28;19932;-62
2024/03/08 09:47:57;;;;;;;;;;;;;;;;;;5069767;28;19921;-62
2024/03/08 09:50:23;;;;;;;;;;;;;;;;;;5068639;28;19926;-62
2024/03/08 09:52:49;;;;;;;;;;;;;;;;;;5070364;28;20024;-62
2024/03/08 09:55:17;;;;;;;;;;;;;;;;;;5062213;28;19920;-62
2024/03/08 09:58:16;;;;;;;;;;;;;;;;;;5067662;28;19982;-62
2024/03/08 10:00:29;;;;;;;;;;;;;;;;;;5066426;28;19931;-61
2024/03/08 10:02:55;;;;;;;;;;;;;;;;;;5065466;28;20282;-62
2024/03/08 10:05:21;;;;;;;;;;;;;;;;;;5066577;28;19933;-62
2024/03/08 10:07:47;;;;;;;;;;;;;;;;;;5066708;28;19920;-62
2024/03/08 10:10:13;;;;;;;;;;;;;;;;;;5066745;28;20334;-62
2024/03/08 10:12:39;;;;;;;;;;;;;;;;;;5067525;28;19924;-62
2024/03/08 10:15:05;;;;;;;;;;;;;;;;;;5069218;28;19990;-62
2024/03/08 10:17:32;;;;;;;;;;;;;;;;;;5069892;28;19931;-62
2024/03/08 10:19:58;;;;;;;;;;;;;;;;;;5066373;28;19920;-62
2024/03/08 10:22:24;;;;;;;;;;;;;;;;;;5066307;28;19926;-61
2024/03/08 10:24:50;;;;;;;;;;;;;;;;;;5072788;28;19932;-62
2024/03/08 10:27:16;;;;;;;;;;;;;;;;;;5069771;28;20579;-61
2024/03/08 10:29:44;;;;;;;;;;;;;;;;;;5066290;28;19977;-61
2024/03/08 10:32:10;;;;;;;;;;;;;;;;;;5072979;28;20279;-61
2024/03/08 10:34:36;;;;;;;;;;;;;;;;;;5063313;28;19924;-61
2024/03/08 10:37:02;;;;;;;;;;;;;;;;;;5066804;28;19966;-61
2024/03/08 10:39:28;;;;;;;;;;;;;;;;;;5072939;28;19920;-62
2024/03/08 10:41:54;;;;;;;;;;;;;;;;;;5070300;28;19927;-61
2024/03/08 10:44:20;;;;;;;;;;;;;;;;;;5072710;28;19940;-61
2024/03/08 10:46:47;;;;;;;;;;;;;;;;;;5073528;28;19927;-62
2024/03/08 10:49:12;;;;;;;;;;;;;;;;;;5071208;28;19925;-62
2024/03/08 10:51:38;;;;;;;;;;;;;;;;;;5067913;28;19943;-62
2024/03/08 10:54:05;;;;;;;;;;;;;;;;;;5070641;28;20286;-61
2024/03/08 10:56:30;;;;;;;;;;;;;;;;;;5067022;28;19935;-62
2024/03/08 10:58:56;;;;;;;;;;;;;;;;;;5067266;28;20289;-62
2024/03/08 11:01:24;;;;;;;;;;;;;;;;;;5061331;28;19982;-62
2024/03/08 11:03:52;;;;;;;;;;;;;;;;;;5058323;28;19924;-62
2024/03/08 11:06:22;;;;;;;;;;;;;;;;;;5070735;28;20297;-62
2024/03/08 11:08:50;;;;;;;;;;;;;;;;;;5074924;28;19927;-62
2024/03/08 11:11:16;;;;;;;;;;;;;;;;;;5067541;28;19932;-62
2024/03/08 11:13:43;;;;;;;;;;;;;;;;;;5067838;28;19928;-62
2024/03/08 11:16:09;;;;;;;;;;;;;;;;;;5074738;28;19933;-62
2024/03/08 11:18:35;;;;;;;;;;;;;;;;;;5071047;28;19928;-61
2024/03/08 11:21:01;;;;;;;;;;;;;;;;;;5069274;28;19928;-61
2024/03/08 11:23:27;;;;;;;;;;;;;;;;;;5070025;28;19955;-62
2024/03/08 11:25:53;;;;;;;;;;;;;;;;;;5071211;28;19998;-62
2024/03/08 11:28:19;;;;;;;;;;;;;;;;;;5073861;28;19932;-62
2024/03/08 11:30:45;;;;;;;;;;;;;;;;;;5070478;28;19920;-62
2024/03/08 11:33:12;;;;;;;;;;;;;;;;;;5071042;28;19920;-62
2024/03/08 11:35:38;;;;;;;;;;;;;;;;;;5066280;28;19924;-63
2024/03/08 11:38:04;;;;;;;;;;;;;;;;;;5065874;28;19928;-63
2024/03/08 11:40:33;;;;;;;;;;;;;;;;;;5072220;28;20289;-62
2024/03/08 11:42:59;;;;;;;;;;;;;;;;;;5074012;28;19927;-62
2024/03/08 11:45:24;;;;;;;;;;;;;;;;;;5069217;28;19928;-62
2024/03/08 11:47:51;;;;;;;;;;;;;;;;;;5073832;28;19924;-62
2024/03/08 11:50:20;;;;;;;;;;;;;;;;;;5068389;28;19928;-62
2024/03/08 11:52:46;;;;;;;;;;;;;;;;;;5072743;28;20054;-62
2024/03/08 11:55:12;;;;;;;;;;;;;;;;;;5074161;28;19920;-61
2024/03/08 11:57:38;;;;;;;;;;;;;;;;;;5077829;28;19920;-62
2024/03/08 12:00:07;;;;;;;;;;;;;;;;;;5076875;28;19920;-62
2024/03/08 12:02:36;;;;;;;;;;;;;;;;;;5066893;28;20033;-62
2024/03/08 12:05:06;;;;;;;;;;;;;;;;;;5071416;28;19929;-61
2024/03/08 12:07:34;;;;;;;;;;;;;;;;;;5069258;28;19931;-62
2024/03/08 12:10:00;;;;;;;;;;;;;;;;;;5060923;28;19928;-62
2024/03/08 12:12:28;;;;;;;;;;;;;;;;;;5073325;28;19927;-62
2024/03/08 12:14:54;;;;;;;;;;;;;;;;;;5058639;28;19924;-62
2024/03/08 12:17:20;;;;;;;;;;;;;;;;;;5053162;28;19924;-62
2024/03/08 12:19:46;;;;;;;;;;;;;;;;;;5063291;28;20263;-62
2024/03/08 12:22:12;;;;;;;;;;;;;;;;;;5055897;28;19955;-62
2024/03/08 12:24:37;;;;;;;;;;;;;;;;;;5066316;28;20001;-62
2024/03/08 12:27:05;;;;;;;;;;;;;;;;;;5071301;28;19963;-62
2024/03/08 12:29:31;;;;;;;;;;;;;;;;;;5070322;28;19921;-63
2024/03/08 12:31:58;;;;;;;;;;;;;;;;;;5069406;28;19920;-62
2024/03/08 12:34:24;;;;;;;;;;;;;;;;;;5071944;28;20220;-62
2024/03/08 12:36:51;;;;;;;;;;;;;;;;;;5065637;28;19947;-62
2024/03/08 12:39:21;;;;;;;;;;;;;;;;;;5060830;28;19921;-63
2024/03/08 12:41:47;;;;;;;;;;;;;;;;;;5060455;28;19924;-63
2024/03/08 12:44:13;;;;;;;;;;;;;;;;;;5069605;28;20377;-63
2024/03/08 12:46:44;;;;;;;;;;;;;;;;;;5060851;28;19974;-62
2024/03/08 12:49:10;;;;;;;;;;;;;;;;;;5073152;28;20293;-63
2024/03/08 12:51:39;;;;;;;;;;;;;;;;;;5068833;28;19920;-62
2024/03/08 12:54:07;;;;;;;;;;;;;;;;;;5068868;28;19924;-63
2024/03/08 12:56:33;;;;;;;;;;;;;;;;;;5071480;28;20294;-63
2024/03/08 12:58:59;;;;;;;;;;;;;;;;;;5073484;28;19924;-63
2024/03/08 13:01:26;;;;;;;;;;;;;;;;;;5079903;28;19924;-62
2024/03/08 13:03:52;;;;;;;;;;;;;;;;;;5080922;28;19964;-62
2024/03/08 13:06:19;;;;;;;;;;;;;;;;;;5082206;28;19959;-62
2024/03/08 13:08:45;;;;;;;;;;;;;;;;;;5076734;28;19928;-61
2024/03/08 13:11:11;;;;;;;;;;;;;;;;;;5072544;28;19924;-62
2024/03/08 13:13:39;;;;;;;;;;;;;;;;;;5084969;28;19986;-62
2024/03/08 13:16:08;;;;;;;;;;;;;;;;;;5085862;28;20271;-62
2024/03/08 13:18:34;;;;;;;;;;;;;;;;;;5088374;28;19920;-62
2024/03/08 13:21:04;;;;;;;;;;;;;;;;;;5070166;28;19942;-62
2024/03/08 13:23:30;;;;;;;;;;;;;;;;;;5068791;28;20030;-62
2024/03/08 13:25:57;;;;;;;;;;;;;;;;;;5062653;28;19924;-62
2024/03/08 13:28:27;;;;;;;;;;;;;;;;;;5077221;28;19920;-62
2024/03/08 13:30:53;;;;;;;;;;;;;;;;;;5082820;28;19920;-63
2024/03/08 13:33:20;;;;;;;;;;;;;;;;;;5069952;28;20421;-63
2024/03/08 13:35:46;;;;;;;;;;;;;;;;;;5082580;28;20018;-63
2024/03/08 13:38:13;;;;;;;;;;;;;;;;;;5071891;28;19924;-63
2024/03/08 13:40:40;;;;;;;;;;;;;;;;;;5063091;28;20053;-63
2024/03/08 13:43:07;;;;;;;;;;;;;;;;;;5060892;28;19924;-63
2024/03/08 13:45:33;;;;;;;;;;;;;;;;;;5083024;28;20003;-61
2024/03/08 13:47:59;;;;;;;;;;;;;;;;;;5071479;28;19977;-61
2024/03/08 13:50:26;;;;;;;;;;;;;;;;;;5069082;28;19921;-61
2024/03/08 13:52:53;;;;;;;;;;;;;;;;;;5065558;28;19960;-62
2024/03/08 13:55:19;;;;;;;;;;;;;;;;;;5069523;28;19921;-62
2024/03/08 13:57:46;;;;;;;;;;;;;;;;;;5073874;28;20359;-62
2024/03/08 14:00:12;;;;;;;;;;;;;;;;;;5075600;28;19927;-62
2024/03/08 14:02:40;;;;;;;;;;;;;;;;;;5067299;28;19920;-62
2024/03/08 14:05:08;;;;;;;;;;;;;;;;;;5075162;28;20290;-62
2024/03/08 14:07:34;;;;;;;;;;;;;;;;;;5065539;28;19921;-62
2024/03/08 14:10:00;;;;;;;;;;;;;;;;;;5068751;28;19935;-62
2024/03/08 14:12:26;;;;;;;;;;;;;;;;;;5059350;28;19928;-62
2024/03/08 14:14:52;;;;;;;;;;;;;;;;;;5072333;28;19999;-62
2024/03/08 14:17:18;;;;;;;;;;;;;;;;;;5078484;28;19920;-62
2024/03/08 14:19:44;;;;;;;;;;;;;;;;;;5077657;28;19924;-62
2024/03/08 14:22:14;;;;;;;;;;;;;;;;;;5070993;28;19959;-62
2024/03/08 14:24:40;;;;;;;;;;;;;;;;;;5071351;28;19947;-62
2024/03/08 14:27:08;;;;;;;;;;;;;;;;;;5059588;28;19929;-62
2024/03/08 14:29:34;;;;;;;;;;;;;;;;;;5071647;28;19959;-62
2024/03/08 14:32:01;;;;;;;;;;;;;;;;;;5081206;28;20406;-62
2024/03/08 14:34:30;;;;;;;;;;;;;;;;;;5085778;28;20509;-62
2024/03/08 14:36:56;;;;;;;;;;;;;;;;;;5073615;28;19932;-61
2024/03/08 14:39:26;;;;;;;;;;;;;;;;;;5090603;28;20111;-61
2024/03/08 14:41:53;;;;;;;;;;;;;;;;;;5056379;22;19933;-64
2024/03/08 14:44:19;;;;;;;;;;;;;;;;;;5047932;28;19942;-64
2024/03/08 14:46:45;;;;;;;;;;;;;;;;;;5047819;28;19925;-65
2024/03/08 14:49:11;;;;;;;;;;;;;;;;;;5052723;28;20005;-64
2024/03/08 14:51:37;;;;;;;;;;;;;;;;;;5056255;28;20007;-64
2024/03/08 14:54:06;;;;;;;;;;;;;;;;;;5053964;28;19921;-64
2024/03/08 14:56:32;;;;;;;;;;;;;;;;;;5061613;28;19935;-64
2024/03/08 14:58:59;;;;;;;;;;;;;;;;;;5050636;28;20058;-64
2024/03/08 15:01:29;;;;;;;;;;;;;;;;;;5053202;28;19936;-64
2024/03/08 15:03:55;;;;;;;;;;;;;;;;;;5053209;28;19935;-64
2024/03/08 15:06:21;;;;;;;;;;;;;;;;;;5053035;28;19947;-64
2024/03/08 15:08:47;;;;;;;;;;;;;;;;;;5048607;28;19925;-64
2024/03/08 15:11:20;;;;;;;;;;;;;;;;;;5053429;28;20042;-64
2024/03/08 15:13:46;;;;;;;;;;;;;;;;;;5050119;28;19921;-64
2024/03/08 15:16:17;;;;;;;;;;;;;;;;;;5035922;28;19920;-64
2024/03/08 15:18:46;;;;;;;;;;;;;;;;;;5045742;28;19921;-64
2024/03/08 15:21:12;;;;;;;;;;;;;;;;;;5047368;28;19925;-64
2024/03/08 15:23:43;;;;;;;;;;;;;;;;;;5053498;28;19936;-64
2024/03/08 15:26:09;;;;;;;;;;;;;;;;;;5051799;28;20031;-64
2024/03/08 15:28:38;;;;;;;;;;;;;;;;;;5052326;28;20015;-64
2024/03/08 15:31:05;;;;;;;;;;;;;;;;;;5051895;28;20269;-64
2024/03/08 15:33:31;;;;;;;;;;;;;;;;;;5051577;28;19960;-64
2024/03/08 15:35:59;;;;;;;;;;;;;;;;;;5050383;28;19956;-65
2024/03/08 15:38:27;;;;;;;;;;;;;;;;;;5049967;28;19930;-65
2024/03/08 15:40:54;;;;;;;;;;;;;;;;;;5051283;28;19928;-64
2024/03/08 15:43:20;;;;;;;;;;;;;;;;;;5053691;28;20011;-65
2024/03/08 15:45:46;;;;;;;;;;;;;;;;;;5050087;28;19931;-65
2024/03/08 15:48:12;;;;;;;;;;;;;;;;;;5052978;28;20008;-65
2024/03/08 15:50:38;;;;;;;;;;;;;;;;;;5047139;28;19921;-65
2024/03/08 15:53:04;;;;;;;;;;;;;;;;;;5044610;28;19986;-65
2024/03/08 15:55:31;;;;;;;;;;;;;;;;;;5049993;28;20271;-65
2024/03/08 15:57:59;;;;;;;;;;;;;;;;;;5052650;28;19921;-65
2024/03/08 16:00:45;;;;;;;;;;;;;;;;;;5049504;28;20016;-65
2024/03/08 16:03:11;;;;;;;;;;;;;;;;;;5048339;28;19925;-65
2024/03/08 16:05:38;;;;;;;;;;;;;;;;;;5048935;28;19928;-64
2024/03/08 16:08:04;;;;;;;;;;;;;;;;;;5042399;28;19921;-65
2024/03/08 16:10:30;;;;;;;;;;;;;;;;;;5048580;28;19921;-65
2024/03/08 16:12:56;;;;;;;;;;;;;;;;;;5050872;28;20378;-65
2024/03/08 16:15:22;;;;;;;;;;;;;;;;;;5042417;28;19935;-65
2024/03/08 16:17:48;;;;;;;;;;;;;;;;;;5050147;28;19927;-65
2024/03/08 16:20:14;;;;;;;;;;;;;;;;;;5049117;28;19932;-64
2024/03/08 16:22:40;;;;;;;;;;;;;;;;;;5062412;28;19920;-65
2024/03/08 16:25:12;;;;;;;;;;;;;;;;;;5050492;28;20279;-63
2024/03/08 16:27:38;;;;;;;;;;;;;;;;;;5054954;28;19996;-63
2024/03/08 16:30:08;;;;;;;;;;;;;;;;;;5049044;28;19921;-65
2024/03/08 16:32:34;;;;;;;;;;;;;;;;;;5050141;28;20321;-63
2024/03/08 16:35:00;;;;;;;;;;;;;;;;;;5043626;28;19929;-64
2024/03/08 16:37:29;;;;;;;;;;;;;;;;;;5043014;28;19921;-64
2024/03/08 16:39:54;;;;;;;;;;;;;;;;;;5045868;28;19921;-64
2024/03/08 16:42:20;;;;;;;;;;;;;;;;;;5051019;28;19939;-64
2024/03/08 16:44:46;;;;;;;;;;;;;;;;;;5050606;28;19925;-64